메인 페이지
METAR-TAF:

METAR-TAF

공항 :

시즈오카 공항

시즈오카, 일본

위도: 34-47-46N, 경도: 138-11-22E, 고도: 132m

현재 날씨관측

예보는 5 시간 58분 전, 12:00시(UTC)에 발표되었습니다.
4kt북서풍과 북북동풍을 오가는
온도 19°C
습도 100%
기압 1015 hPa
시정 10km 이상
고도 200ft 상공 구름 조금
고도 3500ft 상공 구름 많음

METAR: RJNS 251200Z 35004KT 320V020 9999 FEW002 BKN035 19/19 Q1015

시각: 02:58 (17:58 UTC)

예보

예보는 50분 전, 17:08시(UTC)에 발표되었습니다.
예보 대상 시간: 25일 18시부터 27일 00시까지 (UTC)
북북동6kt
시정 10km 이상
고도 2000ft 상공 구름 조금
고도 4000ft 상공 구름 많음
전환 중
25일 22시부터 26일 00시까지 (UTC)
동북동12kt
전환 중
26일 09시부터 26일 12시까지 (UTC)
6kt
일시적
26일 09시부터 26일 15시까지 (UTC)
시정: 4000m
고도 300ft 상공 구름 조금
고도 500ft 상공 구름 많음
소나기, 박무
일시적
26일 15시부터 26일 18시까지 (UTC)
시정: 4000m
고도 500ft 상공 구름 조금
고도 800ft 상공 구름 많음
약한소나기, 박무

TAF: RJNS 251708Z 2518/2700 02006KT 9999 FEW020 BKN040 BECMG 2522/2600 06012KT BECMG 2609/2612 36006KT TEMPO 2609/2615 4000 SHRA BR FEW003 BKN005 TEMPO 2615/2618 4000 -SHRA BR FEW005 BKN008

4,000개 이상의 공항 관측 자료 및 예보 (METAR 및 TAF 보고).

지도상에서 검색 가능한 기상관측소가 노란 점과 빨간 점으로 표시되어 있습니다.

기상관측소 명을 보려면 표시 위로 마우스를 이동하세요.

날씨 관측과 예보를 보려면 클릭하세요.

지도 변경 : 확대하려면 엑스 표시가 있는 녹색 버튼, 축소하려면 빼기 표시가 있는 녹색 버튼, 다음 페이지의 지도를 보려면 녹색 화살표를 클릭하세요.


METAR-TAF: